Terminal Aerodrome Forecast
Issued by NWS Wilmington, OH

Current Version | Previous Version | Text Only | Print | Product List | Glossary Off
Versions: 1 2 3 4 5 6 7 8 9 10 11 12 13 14 15 16 17 18 19 20 21 22 23 24 25 26

000
FTUS41 KILN 282300 RRA
TAFDAY
TAF
KDAY 282343Z 2900/2924 28010KT P6SM BKN070
     FM290400 18007KT P6SM BKN060
     FM291000 16008KT P6SM VCSH SCT040 BKN070
     FM291300 19012G21KT 5SM -SHRA OVC040
     FM291700 23012G22KT P6SM VCTS BKN040CB=

USA.gov is the U.S. government's official web portal to all federal, state and local government web resources and services.